Time;durP1;ratioP1;P1;durP2;ratioP2;P2;SDS_P1;SDS_P2;PMS_P1;PMS_P2;Temp;Humidity;BMP_temperature;BMP_pressure;BME280_temperature;BME280_humidity;BME280_pressure;Samples;Min_cycle;Max_cycle;Signal;HPM_P1;HPM_P2
2022/10/16 00:01:05;;;;;;;;;;;15.50;99.90;;;;;;5106945;28;19942;-74
2022/10/16 00:03:33;;;;;;;;;;;15.40;99.90;;;;;;5106794;28;19920;-75
2022/10/16 00:06:00;;;;;;;;;;;15.40;99.90;;;;;;5106373;28;19987;-74
2022/10/16 00:08:26;;;;;;;;;;;15.40;99.90;;;;;;5106521;28;19927;-75
2022/10/16 00:10:53;;;;;;;;;;;15.50;99.90;;;;;;5106884;28;19920;-75
2022/10/16 00:13:20;;;;;;;;;;;15.40;99.90;;;;;;5106484;28;19983;-75
2022/10/16 00:15:47;;;;;;;;;;;15.50;99.90;;;;;;5106380;28;19920;-75
2022/10/16 00:18:14;;;;;;;;;;;15.40;99.90;;;;;;5106470;28;20011;-76
2022/10/16 00:20:42;;;;;;;;;;;15.50;99.90;;;;;;5106352;28;20239;-74
2022/10/16 00:23:10;;;;;;;;;;;15.40;99.90;;;;;;5106606;28;19926;-75
2022/10/16 00:25:36;;;;;;;;;;;15.40;99.90;;;;;;5106614;28;20156;-75
2022/10/16 00:28:03;;;;;;;;;;;15.40;99.90;;;;;;5105779;28;19920;-74
2022/10/16 00:30:30;;;;;;;;;;;15.40;99.90;;;;;;5106283;28;19958;-75
2022/10/16 00:32:56;;;;;;;;;;;15.40;99.90;;;;;;5106217;28;20164;-75
2022/10/16 00:35:23;;;;;;;;;;;15.40;99.90;;;;;;5105841;28;19919;-75
2022/10/16 00:37:51;;;;;;;;;;;15.40;99.90;;;;;;5106167;28;19926;-76
2022/10/16 00:40:18;;;;;;;;;;;15.40;99.90;;;;;;5105516;28;19920;-76
2022/10/16 00:42:44;;;;;;;;;;;15.40;99.90;;;;;;5105793;28;19969;-75
2022/10/16 00:45:11;;;;;;;;;;;15.40;99.90;;;;;;5105791;28;20153;-75
2022/10/16 00:47:39;;;;;;;;;;;15.40;99.90;;;;;;5105933;28;20040;-75
2022/10/16 00:50:07;;;;;;;;;;;15.30;99.90;;;;;;5106167;28;19926;-75
2022/10/16 00:52:34;;;;;;;;;;;15.30;99.90;;;;;;5105816;28;19920;-75
2022/10/16 00:55:04;;;;;;;;;;;15.30;99.90;;;;;;5105405;28;19920;-75
2022/10/16 00:57:30;;;;;;;;;;;15.40;99.90;;;;;;5105660;28;19983;-75
2022/10/16 00:59:57;;;;;;;;;;;15.30;99.90;;;;;;5105538;28;19920;-75
2022/10/16 01:02:24;;;;;;;;;;;15.40;99.90;;;;;;5105641;28;19963;-75
2022/10/16 01:04:52;;;;;;;;;;;15.30;99.90;;;;;;5105845;28;19926;-75
2022/10/16 01:07:27;;;;;;;;;;;15.30;99.90;;;;;;5105596;28;19956;-75
2022/10/16 01:09:59;;;;;;;;;;;15.30;99.90;;;;;;5105448;28;19920;-75
2022/10/16 01:12:33;;;;;;;;;;;15.30;99.90;;;;;;5105427;28;19920;-75
2022/10/16 01:15:02;;;;;;;;;;;15.30;99.90;;;;;;5105215;28;19927;-75
2022/10/16 01:17:32;;;;;;;;;;;15.30;99.90;;;;;;5104970;28;19983;-75
2022/10/16 01:20:06;;;;;;;;;;;15.30;99.90;;;;;;5105013;28;19920;-75
2022/10/16 01:22:36;;;;;;;;;;;15.30;99.90;;;;;;5105160;28;19927;-75
2022/10/16 01:25:06;;;;;;;;;;;15.40;99.90;;;;;;5104574;28;19920;-75
2022/10/16 01:27:36;;;;;;;;;;;15.40;99.90;;;;;;5105004;28;19926;-74
2022/10/16 01:30:07;;;;;;;;;;;15.30;99.90;;;;;;5105047;28;19927;-76
2022/10/16 01:32:37;;;;;;;;;;;15.30;99.90;;;;;;5105086;28;19920;-76
2022/10/16 01:35:05;;;;;;;;;;;15.40;99.90;;;;;;5104744;28;19995;-75
2022/10/16 01:37:34;;;;;;;;;;;15.30;99.90;;;;;;5104653;28;20200;-75
2022/10/16 01:40:01;;;;;;;;;;;15.30;99.90;;;;;;5104039;28;19992;-75
2022/10/16 01:42:31;;;;;;;;;;;15.40;99.90;;;;;;5104987;28;20004;-75
2022/10/16 01:45:00;;;;;;;;;;;15.30;99.90;;;;;;5104221;28;19985;-75
2022/10/16 01:47:27;;;;;;;;;;;15.30;99.90;;;;;;5104606;28;19947;-75
2022/10/16 01:49:55;;;;;;;;;;;15.30;99.90;;;;;;5104605;28;19943;-75
2022/10/16 01:52:24;;;;;;;;;;;15.30;99.90;;;;;;5104681;28;20229;-74
2022/10/16 01:54:51;;;;;;;;;;;15.40;99.90;;;;;;5104378;28;20151;-74
2022/10/16 01:57:19;;;;;;;;;;;15.30;99.90;;;;;;5104470;28;19920;-75
2022/10/16 01:59:49;;;;;;;;;;;15.30;99.90;;;;;;5103637;28;20215;-75
2022/10/16 02:02:18;;;;;;;;;;;15.30;99.90;;;;;;5104326;28;19926;-75
2022/10/16 02:04:47;;;;;;;;;;;15.40;99.90;;;;;;5104045;28;19928;-74
2022/10/16 02:07:14;;;;;;;;;;;15.30;99.90;;;;;;5104620;28;20111;-75
2022/10/16 02:09:40;;;;;;;;;;;15.30;99.90;;;;;;5104528;28;19942;-75
2022/10/16 02:12:10;;;;;;;;;;;15.40;99.90;;;;;;5104167;28;20233;-74
2022/10/16 02:14:38;;;;;;;;;;;15.30;99.90;;;;;;5103272;28;19979;-73
2022/10/16 02:17:10;;;;;;;;;;;15.30;99.90;;;;;;5103927;28;19926;-74
2022/10/16 02:19:38;;;;;;;;;;;15.30;99.90;;;;;;5103889;28;19919;-74
2022/10/16 02:22:06;;;;;;;;;;;15.30;99.90;;;;;;5104507;28;19920;-74
2022/10/16 02:24:34;;;;;;;;;;;15.30;99.90;;;;;;5103722;28;20200;-74
2022/10/16 02:27:04;;;;;;;;;;;15.30;99.90;;;;;;5103795;28;19920;-74
2022/10/16 02:29:31;;;;;;;;;;;15.30;99.90;;;;;;5103478;28;19926;-74
2022/10/16 02:31:59;;;;;;;;;;;15.30;99.90;;;;;;5103935;28;19920;-73
2022/10/16 02:34:26;;;;;;;;;;;15.30;99.90;;;;;;5104100;28;19920;-73
2022/10/16 02:36:57;;;;;;;;;;;15.30;99.90;;;;;;5103324;28;19920;-73
2022/10/16 02:39:23;;;;;;;;;;;15.30;99.90;;;;;;5102913;28;19920;-74
2022/10/16 02:41:50;;;;;;;;;;;15.30;99.90;;;;;;5103801;28;19920;-74
2022/10/16 02:44:17;;;;;;;;;;;15.20;99.90;;;;;;5103118;28;19920;-73
2022/10/16 02:46:43;;;;;;;;;;;15.20;99.90;;;;;;5103180;28;19924;-74
2022/10/16 02:49:10;;;;;;;;;;;15.20;99.90;;;;;;5103647;28;19992;-74
2022/10/16 02:51:36;;;;;;;;;;;15.20;99.90;;;;;;5103622;28;19966;-74
2022/10/16 02:54:05;;;;;;;;;;;15.20;99.90;;;;;;5103565;28;19988;-75
2022/10/16 02:56:31;;;;;;;;;;;15.20;99.90;;;;;;5103215;28;19920;-75
2022/10/16 02:58:58;;;;;;;;;;;15.20;99.90;;;;;;5103208;28;20115;-73
2022/10/16 03:01:25;;;;;;;;;;;15.20;99.90;;;;;;5103740;28;19955;-73
2022/10/16 03:03:51;;;;;;;;;;;15.20;99.90;;;;;;5103460;28;20199;-74
2022/10/16 03:06:18;;;;;;;;;;;15.20;99.90;;;;;;5103160;28;19983;-73
2022/10/16 03:08:45;;;;;;;;;;;15.20;99.90;;;;;;5103506;28;19942;-73
2022/10/16 03:11:12;;;;;;;;;;;15.10;99.90;;;;;;5102280;28;19987;-74
2022/10/16 03:13:39;;;;;;;;;;;15.10;99.90;;;;;;5103278;28;19926;-73
2022/10/16 03:16:06;;;;;;;;;;;15.10;99.90;;;;;;5103261;28;19927;-73
2022/10/16 03:18:32;;;;;;;;;;;15.10;99.90;;;;;;5103147;28;19987;-73
2022/10/16 03:20:59;;;;;;;;;;;15.10;99.90;;;;;;5103230;28;20187;-73
2022/10/16 03:23:25;;;;;;;;;;;15.00;99.90;;;;;;5103292;28;19920;-73
2022/10/16 03:25:52;;;;;;;;;;;15.00;99.90;;;;;;5102691;28;20275;-75
2022/10/16 03:28:20;;;;;;;;;;;15.00;99.90;;;;;;5103114;28;19920;-75
2022/10/16 03:30:47;;;;;;;;;;;15.00;99.90;;;;;;5103356;28;19920;-73
2022/10/16 03:33:13;;;;;;;;;;;15.00;99.90;;;;;;5103260;28;19920;-73
2022/10/16 03:35:40;;;;;;;;;;;15.00;99.90;;;;;;5102922;28;20089;-73
2022/10/16 03:38:06;;;;;;;;;;;15.00;99.90;;;;;;5102978;28;19983;-75
2022/10/16 03:40:33;;;;;;;;;;;15.00;99.90;;;;;;5102391;28;19926;-74
2022/10/16 03:43:00;;;;;;;;;;;15.00;99.90;;;;;;5103104;28;19951;-74
2022/10/16 03:45:28;;;;;;;;;;;15.00;99.90;;;;;;5103049;28;19927;-74
2022/10/16 03:47:54;;;;;;;;;;;14.90;99.90;;;;;;5103079;28;19920;-73
2022/10/16 03:50:21;;;;;;;;;;;14.90;99.90;;;;;;5103198;28;19982;-74
2022/10/16 03:52:47;;;;;;;;;;;14.90;99.90;;;;;;5102879;28;20033;-74
2022/10/16 03:55:14;;;;;;;;;;;14.90;99.90;;;;;;5102581;28;19983;-74
2022/10/16 03:57:41;;;;;;;;;;;15.00;99.90;;;;;;5103084;28;19983;-73
2022/10/16 04:00:08;;;;;;;;;;;14.90;99.90;;;;;;5102650;28;19991;-74
2022/10/16 04:02:36;;;;;;;;;;;15.00;99.90;;;;;;5102993;28;19920;-73
2022/10/16 04:05:02;;;;;;;;;;;15.00;99.90;;;;;;5102511;28;19920;-73
2022/10/16 04:07:29;;;;;;;;;;;15.00;99.90;;;;;;5102751;28;19974;-74
2022/10/16 04:09:57;;;;;;;;;;;15.00;99.90;;;;;;5102936;28;19920;-74
2022/10/16 04:12:24;;;;;;;;;;;15.00;99.90;;;;;;5102700;28;19924;-74
2022/10/16 04:14:50;;;;;;;;;;;14.90;99.90;;;;;;5102582;28;19927;-74
2022/10/16 04:17:17;;;;;;;;;;;14.90;99.90;;;;;;5102839;28;19956;-74
2022/10/16 04:19:45;;;;;;;;;;;14.90;99.90;;;;;;5102413;28;20208;-74
2022/10/16 04:22:11;;;;;;;;;;;14.90;99.90;;;;;;5105016;28;19920;-76
2022/10/16 04:24:38;;;;;;;;;;;14.90;99.90;;;;;;5106271;28;20254;-74
2022/10/16 04:27:05;;;;;;;;;;;14.90;99.90;;;;;;5106415;28;19955;-73
2022/10/16 04:29:31;;;;;;;;;;;14.90;99.90;;;;;;5106439;28;19987;-74
2022/10/16 04:31:58;;;;;;;;;;;14.90;99.90;;;;;;5105987;28;19930;-75
2022/10/16 04:34:25;;;;;;;;;;;14.90;99.90;;;;;;5106181;28;19987;-75
2022/10/16 04:36:53;;;;;;;;;;;14.90;99.90;;;;;;5105612;28;19928;-73
2022/10/16 04:39:19;;;;;;;;;;;14.90;99.90;;;;;;5105094;28;20200;-74
2022/10/16 04:41:46;;;;;;;;;;;14.90;99.90;;;;;;5105856;28;19988;-74
2022/10/16 04:44:13;;;;;;;;;;;14.90;99.90;;;;;;5106026;28;19983;-74
2022/10/16 04:46:39;;;;;;;;;;;14.80;99.90;;;;;;5105405;28;19928;-74
2022/10/16 04:49:06;;;;;;;;;;;14.80;99.90;;;;;;5105768;28;20093;-74
2022/10/16 04:51:32;;;;;;;;;;;14.80;99.90;;;;;;5106028;28;19927;-74
2022/10/16 04:54:00;;;;;;;;;;;14.80;99.90;;;;;;5106047;28;19920;-73
2022/10/16 04:56:27;;;;;;;;;;;14.80;99.90;;;;;;5105426;28;19920;-74
2022/10/16 04:58:54;;;;;;;;;;;14.80;99.90;;;;;;5105495;28;19923;-73
2022/10/16 05:01:22;;;;;;;;;;;14.80;99.90;;;;;;5105952;28;19963;-74
2022/10/16 05:03:49;;;;;;;;;;;14.70;99.90;;;;;;5105632;28;20160;-74
2022/10/16 05:06:15;;;;;;;;;;;14.70;99.90;;;;;;5105601;28;19926;-74
2022/10/16 05:08:42;;;;;;;;;;;14.70;99.90;;;;;;5105497;28;19920;-73
2022/10/16 05:11:10;;;;;;;;;;;14.60;99.90;;;;;;5105672;28;19954;-72
2022/10/16 05:13:37;;;;;;;;;;;14.70;99.90;;;;;;5105594;28;19927;-73
2022/10/16 05:16:03;;;;;;;;;;;14.70;99.90;;;;;;5105192;28;20282;-74
2022/10/16 05:18:30;;;;;;;;;;;14.60;99.90;;;;;;5105471;28;19926;-75
2022/10/16 05:20:57;;;;;;;;;;;14.60;99.90;;;;;;5105498;28;19920;-74
2022/10/16 05:23:23;;;;;;;;;;;14.60;99.90;;;;;;5105356;28;19973;-74
2022/10/16 05:25:54;;;;;;;;;;;14.60;99.90;;;;;;5104877;28;19983;-74
2022/10/16 05:28:22;;;;;;;;;;;14.60;99.90;;;;;;5105269;28;19920;-74
2022/10/16 05:30:49;;;;;;;;;;;14.50;99.90;;;;;;5104900;28;20267;-74
2022/10/16 05:33:15;;;;;;;;;;;14.50;99.90;;;;;;5103991;28;19927;-74
2022/10/16 05:35:42;;;;;;;;;;;14.50;99.90;;;;;;5105020;28;19920;-74
2022/10/16 05:38:09;;;;;;;;;;;14.50;99.90;;;;;;5104764;28;19926;-74
2022/10/16 05:40:36;;;;;;;;;;;14.60;99.90;;;;;;5103910;28;19987;-74
2022/10/16 05:43:02;;;;;;;;;;;14.50;99.90;;;;;;5104932;28;20153;-74
2022/10/16 05:45:30;;;;;;;;;;;14.50;99.90;;;;;;5104210;28;20227;-74
2022/10/16 05:47:57;;;;;;;;;;;14.50;99.90;;;;;;5104556;28;20192;-74
2022/10/16 05:50:23;;;;;;;;;;;14.50;99.90;;;;;;5104727;28;19977;-74
2022/10/16 05:52:50;;;;;;;;;;;14.50;99.90;;;;;;5104660;28;19920;-72
2022/10/16 05:55:17;;;;;;;;;;;14.50;99.90;;;;;;5104326;28;19926;-73
2022/10/16 05:57:43;;;;;;;;;;;14.50;99.90;;;;;;5104413;28;19920;-71
2022/10/16 06:00:10;;;;;;;;;;;14.40;99.90;;;;;;5104239;28;19927;-71
2022/10/16 06:02:38;;;;;;;;;;;14.40;99.90;;;;;;5104693;28;19926;-71
2022/10/16 06:05:05;;;;;;;;;;;14.50;99.90;;;;;;5104009;28;19942;-72
2022/10/16 06:07:34;;;;;;;;;;;14.50;99.90;;;;;;5104321;28;20230;-72
2022/10/16 06:10:01;;;;;;;;;;;14.50;99.90;;;;;;5104051;28;19927;-72
2022/10/16 06:12:27;;;;;;;;;;;14.50;99.90;;;;;;5104000;28;19926;-72
2022/10/16 06:14:54;;;;;;;;;;;14.50;99.90;;;;;;5103937;28;19958;-71
2022/10/16 06:17:21;;;;;;;;;;;14.50;99.90;;;;;;5104217;28;19947;-71
2022/10/16 06:19:49;;;;;;;;;;;14.50;99.90;;;;;;5103785;28;19966;-72
2022/10/16 06:22:15;;;;;;;;;;;14.60;99.90;;;;;;5103879;28;19927;-74
2022/10/16 06:24:42;;;;;;;;;;;14.60;99.90;;;;;;5103934;28;19973;-74
2022/10/16 06:27:09;;;;;;;;;;;14.60;99.90;;;;;;5104544;28;20002;-74
2022/10/16 06:29:35;;;;;;;;;;;14.60;99.90;;;;;;5104042;28;19987;-74
2022/10/16 06:32:02;;;;;;;;;;;14.60;99.90;;;;;;5103977;28;20115;-74
2022/10/16 06:34:28;;;;;;;;;;;14.70;99.90;;;;;;5104047;28;19987;-74
2022/10/16 06:36:56;;;;;;;;;;;14.70;99.90;;;;;;5104160;28;19926;-74
2022/10/16 06:39:23;;;;;;;;;;;14.70;99.90;;;;;;5103313;28;19921;-73
2022/10/16 06:41:50;;;;;;;;;;;14.70;99.90;;;;;;5104140;28;19927;-75
2022/10/16 06:44:16;;;;;;;;;;;14.80;99.90;;;;;;5104178;28;19986;-74
2022/10/16 06:46:43;;;;;;;;;;;14.80;99.90;;;;;;5104226;28;20166;-74
2022/10/16 06:49:09;;;;;;;;;;;14.80;99.90;;;;;;5103837;28;19927;-74
2022/10/16 06:51:40;;;;;;;;;;;14.80;99.90;;;;;;5103795;28;20004;-74
2022/10/16 06:54:08;;;;;;;;;;;14.80;99.90;;;;;;5103245;28;19992;-74
2022/10/16 06:56:35;;;;;;;;;;;14.80;99.90;;;;;;5102801;28;19973;-74
2022/10/16 06:59:02;;;;;;;;;;;14.80;99.90;;;;;;5103395;28;20013;-74
2022/10/16 07:01:29;;;;;;;;;;;14.90;99.90;;;;;;5103424;28;20211;-74
2022/10/16 07:03:55;;;;;;;;;;;14.90;99.90;;;;;;5103491;28;19983;-74
2022/10/16 07:06:23;;;;;;;;;;;14.90;99.90;;;;;;5102947;28;20042;-74
2022/10/16 07:08:50;;;;;;;;;;;14.90;99.90;;;;;;5103207;28;19983;-74
2022/10/16 07:11:18;;;;;;;;;;;14.90;99.90;;;;;;5103601;28;19920;-74
2022/10/16 07:13:46;;;;;;;;;;;14.90;99.90;;;;;;5103634;28;19920;-74
2022/10/16 07:16:13;;;;;;;;;;;15.00;99.90;;;;;;5103450;28;19966;-74
2022/10/16 07:18:42;;;;;;;;;;;15.00;99.90;;;;;;5103650;28;19926;-74
2022/10/16 07:21:10;;;;;;;;;;;15.00;99.90;;;;;;5103050;28;20088;-74
2022/10/16 07:23:36;;;;;;;;;;;15.00;99.90;;;;;;5103485;28;19991;-74
2022/10/16 07:26:03;;;;;;;;;;;15.10;99.90;;;;;;5103327;28;19930;-75
2022/10/16 07:28:31;;;;;;;;;;;15.20;99.90;;;;;;5103501;28;19927;-74
2022/10/16 07:31:01;;;;;;;;;;;15.20;99.90;;;;;;5103254;28;19973;-74
2022/10/16 07:33:27;;;;;;;;;;;15.20;99.90;;;;;;5103519;28;19920;-74
2022/10/16 07:35:55;;;;;;;;;;;15.20;99.90;;;;;;5102644;28;19984;-74
2022/10/16 07:38:22;;;;;;;;;;;15.30;99.90;;;;;;5103082;28;19987;-74
2022/10/16 07:40:48;;;;;;;;;;;15.30;99.90;;;;;;5102363;28;20115;-74
2022/10/16 07:43:15;;;;;;;;;;;15.20;99.90;;;;;;5103446;28;19983;-74
2022/10/16 07:45:49;;;;;;;;;;;15.30;99.90;;;;;;5102907;28;20275;-74
2022/10/16 07:48:16;;;;;;;;;;;15.30;99.90;;;;;;5103222;28;19920;-74
2022/10/16 07:50:43;;;;;;;;;;;15.30;99.90;;;;;;5102607;28;19920;-74
2022/10/16 07:53:10;;;;;;;;;;;15.30;99.90;;;;;;5103302;28;19927;-74
2022/10/16 07:55:36;;;;;;;;;;;15.40;99.90;;;;;;5104512;28;19920;-74
2022/10/16 07:58:04;;;;;;;;;;;15.50;99.90;;;;;;5106853;28;19987;-74
2022/10/16 08:00:31;;;;;;;;;;;15.50;99.90;;;;;;5106876;28;19927;-74
2022/10/16 08:03:00;;;;;;;;;;;15.50;99.90;;;;;;5107301;28;19983;-74
2022/10/16 08:05:26;;;;;;;;;;;15.40;99.90;;;;;;5106711;28;19920;-74
2022/10/16 08:07:53;;;;;;;;;;;15.50;99.90;;;;;;5105517;28;19920;-74
2022/10/16 08:10:21;;;;;;;;;;;15.60;99.90;;;;;;5106822;28;19991;-74
2022/10/16 08:12:48;;;;;;;;;;;15.60;99.90;;;;;;5106642;28;19958;-74
2022/10/16 08:15:14;;;;;;;;;;;15.60;99.90;;;;;;5106208;28;19962;-74
2022/10/16 08:17:41;;;;;;;;;;;15.70;99.90;;;;;;5106490;28;19990;-74
2022/10/16 08:20:10;;;;;;;;;;;15.80;99.90;;;;;;5106211;28;20191;-74
2022/10/16 08:22:37;;;;;;;;;;;15.70;99.90;;;;;;5086187;28;20230;-74
2022/10/16 08:25:04;;;;;;;;;;;15.80;99.90;;;;;;5085955;28;19924;-74
2022/10/16 08:27:31;;;;;;;;;;;15.90;99.90;;;;;;5086103;28;19928;-74
2022/10/16 08:29:58;;;;;;;;;;;15.90;99.90;;;;;;5085996;28;19920;-74
2022/10/16 08:32:25;;;;;;;;;;;15.90;99.90;;;;;;5086039;28;19935;-74
2022/10/16 08:34:51;;;;;;;;;;;16.00;99.90;;;;;;5090555;28;20152;-74
2022/10/16 08:37:19;;;;;;;;;;;16.10;99.90;;;;;;5106080;28;19926;-73
2022/10/16 08:39:46;;;;;;;;;;;16.20;99.90;;;;;;5105451;28;20199;-74
2022/10/16 08:42:20;;;;;;;;;;;16.20;99.90;;;;;;5106230;28;20015;-74
2022/10/16 08:45:05;;;;;;;;;;;16.30;99.90;;;;;;5105770;28;19935;-74
2022/10/16 08:47:39;;;;;;;;;;;16.30;99.90;;;;;;5106260;28;20115;-74
2022/10/16 08:50:09;;;;;;;;;;;16.40;99.90;;;;;;5106024;28;20096;-75
2022/10/16 08:52:40;;;;;;;;;;;16.40;99.90;;;;;;5105828;28;19951;-74
2022/10/16 08:55:06;;;;;;;;;;;16.50;99.90;;;;;;5105481;28;19930;-74
2022/10/16 08:57:33;;;;;;;;;;;16.50;99.90;;;;;;5106549;28;19928;-75
2022/10/16 09:00:01;;;;;;;;;;;16.60;99.90;;;;;;5105700;28;19927;-75
2022/10/16 09:02:31;;;;;;;;;;;16.70;99.90;;;;;;5105773;28;19920;-75
2022/10/16 09:05:12;;;;;;;;;;;16.70;99.90;;;;;;5105157;28;19927;-75
2022/10/16 09:07:41;;;;;;;;;;;16.70;99.90;;;;;;5105509;28;19920;-74
2022/10/16 09:10:14;;;;;;;;;;;16.70;99.90;;;;;;5105887;28;19988;-74
2022/10/16 09:12:44;;;;;;;;;;;16.70;99.90;;;;;;5106562;28;19920;-75
2022/10/16 09:15:15;;;;;;;;;;;16.70;99.90;;;;;;5105339;28;19920;-75
2022/10/16 09:17:50;;;;;;;;;;;16.70;99.90;;;;;;5105351;28;19927;-74
2022/10/16 09:20:24;;;;;;;;;;;16.60;99.90;;;;;;5105331;28;19928;-74
2022/10/16 09:22:54;;;;;;;;;;;16.60;99.90;;;;;;5105529;28;19987;-74
2022/10/16 09:25:21;;;;;;;;;;;16.60;99.90;;;;;;5121013;28;20164;-75
2022/10/16 09:27:49;;;;;;;;;;;16.60;99.90;;;;;;5105231;28;19992;-74
2022/10/16 09:30:17;;;;;;;;;;;16.70;99.90;;;;;;5105276;28;20215;-74
2022/10/16 09:32:44;;;;;;;;;;;16.70;99.90;;;;;;5105170;28;19928;-74
2022/10/16 09:35:14;;;;;;;;;;;16.70;99.90;;;;;;5104917;28;19951;-74
2022/10/16 09:37:41;;;;;;;;;;;16.80;99.90;;;;;;5105023;28;19927;-74
2022/10/16 09:40:13;;;;;;;;;;;16.90;99.90;;;;;;5104495;28;19920;-75
2022/10/16 09:42:39;;;;;;;;;;;17.00;99.90;;;;;;5105078;28;19920;-74
2022/10/16 09:45:07;;;;;;;;;;;17.10;99.90;;;;;;5104541;28;19920;-74
2022/10/16 09:47:40;;;;;;;;;;;17.20;99.90;;;;;;5104770;28;20174;-74
2022/10/16 09:50:21;;;;;;;;;;;17.20;99.90;;;;;;5104743;28;19991;-74
2022/10/16 09:52:47;;;;;;;;;;;17.30;99.90;;;;;;5105060;28;19951;-74
2022/10/16 09:55:16;;;;;;;;;;;17.30;99.90;;;;;;5104458;28;19927;-74
2022/10/16 09:57:49;;;;;;;;;;;17.40;99.90;;;;;;5104490;28;19928;-74
2022/10/16 10:00:17;;;;;;;;;;;17.50;99.90;;;;;;5104697;28;20115;-74
2022/10/16 10:02:43;;;;;;;;;;;17.50;99.90;;;;;;5104357;28;19920;-74
2022/10/16 10:05:19;;;;;;;;;;;17.60;99.90;;;;;;5104260;28;19983;-74
2022/10/16 10:07:46;;;;;;;;;;;17.60;99.90;;;;;;5104327;28;20229;-75
2022/10/16 10:10:21;;;;;;;;;;;17.70;99.90;;;;;;5104333;28;19935;-75
2022/10/16 10:12:48;;;;;;;;;;;17.80;99.90;;;;;;5104603;28;19965;-75
2022/10/16 10:15:19;;;;;;;;;;;17.90;99.90;;;;;;5103988;28;19956;-75
2022/10/16 10:17:47;;;;;;;;;;;17.90;99.90;;;;;;5104051;28;19920;-75
2022/10/16 10:20:22;;;;;;;;;;;18.00;99.90;;;;;;5103647;28;19966;-75
2022/10/16 10:22:48;;;;;;;;;;;18.10;99.90;;;;;;5104636;28;19920;-75
2022/10/16 10:25:42;;;;;;;;;;;18.20;99.90;;;;;;5103948;28;20204;-75
2022/10/16 10:28:22;;;;;;;;;;;18.30;99.90;;;;;;5104148;28;19983;-74
2022/10/16 10:30:54;;;;;;;;;;;18.40;99.90;;;;;;5104151;28;19926;-74
2022/10/16 10:33:24;;;;;;;;;;;18.40;99.90;;;;;;5104280;28;19927;-74
2022/10/16 10:35:55;;;;;;;;;;;18.40;99.90;;;;;;5103808;28;19979;-75
2022/10/16 10:38:28;;;;;;;;;;;18.40;99.90;;;;;;5104122;28;19983;-75
2022/10/16 10:41:01;;;;;;;;;;;18.50;99.90;;;;;;5105056;28;19927;-74
2022/10/16 10:43:36;;;;;;;;;;;18.50;99.90;;;;;;5104226;28;19927;-74
2022/10/16 10:46:04;;;;;;;;;;;18.50;99.90;;;;;;5103825;28;19983;-74
2022/10/16 10:48:47;;;;;;;;;;;18.50;99.90;;;;;;5103768;28;19979;-74
2022/10/16 10:51:19;;;;;;;;;;;18.60;99.90;;;;;;5087763;28;20234;-75
2022/10/16 10:53:50;;;;;;;;;;;18.60;99.90;;;;;;5103613;28;19959;-74
2022/10/16 10:56:24;;;;;;;;;;;18.80;99.90;;;;;;5103761;28;19927;-74
2022/10/16 10:58:58;;;;;;;;;;;18.90;99.90;;;;;;5103617;28;19926;-74
2022/10/16 11:01:27;;;;;;;;;;;19.10;99.90;;;;;;5103339;28;19926;-74
2022/10/16 11:04:09;;;;;;;;;;;19.20;99.90;;;;;;5103656;28;20337;-74
2022/10/16 11:06:37;;;;;;;;;;;19.30;99.90;;;;;;5103425;28;19987;-75
2022/10/16 11:09:10;;;;;;;;;;;19.40;99.90;;;;;;5103640;28;19957;-75
2022/10/16 11:11:41;;;;;;;;;;;19.50;99.90;;;;;;5103623;28;19987;-75
2022/10/16 11:14:12;;;;;;;;;;;19.60;99.90;;;;;;5103471;28;19920;-74
2022/10/16 11:16:41;;;;;;;;;;;19.70;99.90;;;;;;5102803;28;20200;-74
2022/10/16 11:19:12;;;;;;;;;;;19.90;99.90;;;;;;5138232;22;19920;-88
2022/10/16 11:21:44;;;;;;;;;;;20.00;99.90;;;;;;5105997;28;19920;-87
2022/10/16 11:24:16;;;;;;;;;;;20.10;99.90;;;;;;5105588;28;19985;-89
2022/10/16 11:26:46;;;;;;;;;;;20.00;99.90;;;;;;5104509;28;20184;-87
2022/10/16 11:29:14;;;;;;;;;;;20.10;99.90;;;;;;5104755;28;20127;-88
2022/10/16 11:31:44;;;;;;;;;;;20.10;99.90;;;;;;5106278;28;20013;-89
2022/10/16 11:34:16;;;;;;;;;;;20.40;99.90;;;;;;5132669;22;19959;-70
2022/10/16 11:36:45;;;;;;;;;;;20.60;99.90;;;;;;5128055;28;19928;-71
2022/10/16 11:39:25;;;;;;;;;;;20.90;99.90;;;;;;5127778;28;19995;-70
2022/10/16 11:41:54;;;;;;;;;;;21.10;99.90;;;;;;5127532;28;19934;-70
2022/10/16 11:44:28;;;;;;;;;;;21.40;99.90;;;;;;5127111;28;19927;-73
2022/10/16 11:47:01;;;;;;;;;;;21.60;99.90;;;;;;5111178;22;19921;-72
2022/10/16 11:49:29;;;;;;;;;;;21.70;99.90;;;;;;5066936;28;19921;-72
2022/10/16 11:52:00;;;;;;;;;;;21.90;99.90;;;;;;5066869;28;19920;-71
2022/10/16 11:54:29;;;;;;;;;;;22.10;99.90;;;;;;5066967;28;20000;-71
2022/10/16 11:57:00;;;;;;;;;;;22.30;99.90;;;;;;5066461;28;19921;-71
2022/10/16 11:59:30;;;;;;;;;;;22.50;99.90;;;;;;5046613;28;20164;-72
2022/10/16 12:02:00;;;;;;;;;;;22.60;99.90;;;;;;5046573;28;20020;-71
2022/10/16 12:04:33;;;;;;;;;;;22.50;99.90;;;;;;5047033;28;19927;-71
2022/10/16 12:07:04;;;;;;;;;;;22.40;99.90;;;;;;5066860;28;20231;-71
2022/10/16 12:09:31;;;;;;;;;;;22.50;99.90;;;;;;5066551;28;19921;-71
2022/10/16 12:11:59;;;;;;;;;;;22.50;99.90;;;;;;5066524;28;19921;-71
2022/10/16 12:14:37;;;;;;;;;;;22.40;99.90;;;;;;5066679;28;19927;-71
2022/10/16 12:17:06;;;;;;;;;;;22.30;99.90;;;;;;5066033;28;19927;-71
2022/10/16 12:19:33;;;;;;;;;;;22.20;99.90;;;;;;5066264;28;20170;-71
2022/10/16 12:22:00;;;;;;;;;;;22.00;99.90;;;;;;5066344;28;19992;-71
2022/10/16 12:24:35;;;;;;;;;;;22.10;99.90;;;;;;5066216;28;19927;-71
2022/10/16 12:27:04;;;;;;;;;;;22.00;99.90;;;;;;5065991;28;19983;-71
2022/10/16 12:29:33;;;;;;;;;;;22.10;99.90;;;;;;5065982;28;19927;-71
2022/10/16 12:32:00;;;;;;;;;;;22.10;99.90;;;;;;5066160;28;19936;-72
2022/10/16 12:34:28;;;;;;;;;;;22.30;99.90;;;;;;5065973;28;19984;-72
2022/10/16 12:36:55;;;;;;;;;;;22.50;99.90;;;;;;5065863;28;20012;-72
2022/10/16 12:39:23;;;;;;;;;;;22.70;99.90;;;;;;5066115;28;20024;-72
2022/10/16 12:42:01;;;;;;;;;;;23.10;99.90;;;;;;5065366;28;20116;-72
2022/10/16 12:44:32;;;;;;;;;;;23.40;99.90;;;;;;5064674;28;19928;-72
2022/10/16 12:46:58;;;;;;;;;;;23.60;99.90;;;;;;5065497;28;19927;-71
2022/10/16 12:49:31;;;;;;;;;;;23.80;99.90;;;;;;5065768;28;19984;-71
2022/10/16 12:51:58;;;;;;;;;;;23.90;99.90;;;;;;5065853;28;19927;-71
2022/10/16 12:54:28;;;;;;;;;;;24.00;99.90;;;;;;5065628;28;19921;-72
2022/10/16 12:57:01;;;;;;;;;;;24.10;99.90;;;;;;5065506;28;20115;-71
2022/10/16 12:59:39;;;;;;;;;;;24.30;99.90;;;;;;5065534;28;19927;-71
2022/10/16 13:02:23;;;;;;;;;;;24.50;99.90;;;;;;5065147;28;20212;-72
2022/10/16 13:04:56;;;;;;;;;;;24.70;99.90;;;;;;5064281;28;19956;-72
2022/10/16 13:07:38;;;;;;;;;;;24.80;99.90;;;;;;5065157;28;19927;-72
2022/10/16 13:10:12;;;;;;;;;;;24.90;99.90;;;;;;5062130;28;20267;-72
2022/10/16 13:12:47;;;;;;;;;;;25.00;99.90;;;;;;5065670;28;19928;-71
2022/10/16 13:15:22;;;;;;;;;;;24.80;99.90;;;;;;5064975;28;20113;-72
2022/10/16 13:17:53;;;;;;;;;;;24.80;99.90;;;;;;5065367;28;19929;-72
2022/10/16 13:20:22;;;;;;;;;;;24.90;99.90;;;;;;5065725;28;19921;-72
2022/10/16 13:22:52;;;;;;;;;;;25.10;99.90;;;;;;5065341;28;19920;-72
2022/10/16 13:25:23;;;;;;;;;;;25.20;99.90;;;;;;5064974;28;20009;-72
2022/10/16 13:27:53;;;;;;;;;;;25.40;99.90;;;;;;5064753;28;19927;-71
2022/10/16 13:30:22;;;;;;;;;;;25.40;99.90;;;;;;5065270;28;20252;-72
2022/10/16 13:32:50;;;;;;;;;;;25.50;99.90;;;;;;5065060;28;19935;-72
2022/10/16 13:35:22;;;;;;;;;;;25.50;99.90;;;;;;5064782;28;19924;-72
2022/10/16 13:37:48;;;;;;;;;;;25.60;99.90;;;;;;5064777;28;20116;-72
2022/10/16 13:40:19;;;;;;;;;;;25.50;99.90;;;;;;5064770;28;19988;-72
2022/10/16 13:42:46;;;;;;;;;;;25.60;99.90;;;;;;5064457;28;19928;-72
2022/10/16 13:45:18;;;;;;;;;;;25.60;99.90;;;;;;5064271;28;19995;-72
2022/10/16 13:47:46;;;;;;;;;;;25.70;99.90;;;;;;5064632;28;19927;-71
2022/10/16 13:50:14;;;;;;;;;;;25.70;99.90;;;;;;5064270;28;20204;-72
2022/10/16 13:52:41;;;;;;;;;;;25.80;99.90;;;;;;5064614;28;19924;-72
2022/10/16 13:55:11;;;;;;;;;;;25.90;99.90;;;;;;5063312;28;19980;-72
2022/10/16 13:57:37;;;;;;;;;;;26.10;99.90;;;;;;5064316;28;19943;-72
2022/10/16 14:00:17;;;;;;;;;;;26.20;99.90;;;;;;5064540;28;20274;-72
2022/10/16 14:02:46;;;;;;;;;;;26.20;99.90;;;;;;5064287;28;19920;-72
2022/10/16 14:05:15;;;;;;;;;;;26.30;99.90;;;;;;5063871;28;19920;-72
2022/10/16 14:07:42;;;;;;;;;;;26.20;99.90;;;;;;5064066;28;19944;-72
2022/10/16 14:10:25;;;;;;;;;;;26.30;99.90;;;;;;5064383;28;19984;-72
2022/10/16 14:13:02;;;;;;;;;;;26.30;99.90;;;;;;5064017;28;19955;-72
2022/10/16 14:15:29;;;;;;;;;;;26.20;99.90;;;;;;5063555;28;19959;-72
2022/10/16 14:17:58;;;;;;;;;;;26.10;99.90;;;;;;5063866;28;19921;-72
2022/10/16 14:20:26;;;;;;;;;;;26.10;99.90;;;;;;5064174;28;19983;-72
2022/10/16 14:22:59;;;;;;;;;;;26.20;99.90;;;;;;5063963;28;19921;-72
2022/10/16 14:25:27;;;;;;;;;;;26.30;99.90;;;;;;5063463;28;19920;-72